createdAt,value
2023-03-23T16:00:39.088Z,9.66
2023-03-23T16:05:41.366Z,9.65
2023-03-23T16:10:44.214Z,9.63
2023-03-23T16:15:46.959Z,9.63
2023-03-23T16:20:49.526Z,9.56
2023-03-23T16:25:51.490Z,9.58
2023-03-23T16:30:53.690Z,9.52
2023-03-23T16:35:55.494Z,9.50
2023-03-23T16:40:57.356Z,9.48
2023-03-23T16:45:59.243Z,9.44
2023-03-23T16:51:01.078Z,9.42
2023-03-23T16:56:03.449Z,9.42
2023-03-23T17:01:05.568Z,9.39
2023-03-23T17:06:07.497Z,9.38
2023-03-23T17:11:10.677Z,9.35
2023-03-23T17:16:12.519Z,9.31
2023-03-23T17:21:14.373Z,9.26
2023-03-23T17:26:16.175Z,9.20
2023-03-23T17:31:18.130Z,9.21
2023-03-23T17:36:20.105Z,9.15
2023-03-23T17:41:22.053Z,9.16
2023-03-23T17:46:24.028Z,9.13
2023-03-23T17:51:26.049Z,9.08
2023-03-23T17:56:31.050Z,9.04
2023-03-23T18:01:35.304Z,9.02
2023-03-23T18:06:37.200Z,8.95
2023-03-23T18:11:39.397Z,9.00
2023-03-23T18:16:41.401Z,8.95
2023-03-23T18:21:45.693Z,9.02
2023-03-23T18:26:48.120Z,9.10
2023-03-23T18:31:50.050Z,9.05
2023-03-23T18:36:52.038Z,8.99
2023-03-23T18:41:53.936Z,8.97
2023-03-23T18:46:55.936Z,8.92
2023-03-23T18:51:57.910Z,8.92
2023-03-23T18:57:00.397Z,8.88
2023-03-23T19:02:02.863Z,8.84
2023-03-23T19:07:04.843Z,8.82
2023-03-23T19:12:07.518Z,8.79
2023-03-23T19:17:09.359Z,8.68
2023-03-23T19:22:12.366Z,8.69
2023-03-23T19:27:14.293Z,8.65
2023-03-23T19:32:16.374Z,8.68
2023-03-23T19:37:18.621Z,8.72
2023-03-23T19:42:20.513Z,8.68
2023-03-23T19:47:22.501Z,8.63
2023-03-23T19:52:28.925Z,8.65
2023-03-23T19:57:30.875Z,8.62
2023-03-23T20:02:33.073Z,8.67
2023-03-23T20:07:35.220Z,8.61
2023-03-23T20:12:37.174Z,8.59
2023-03-23T20:17:39.158Z,8.55
2023-03-23T20:22:41.068Z,8.51
2023-03-23T20:27:43.172Z,8.54
2023-03-23T20:32:45.129Z,8.54
2023-03-23T20:37:47.452Z,8.46
2023-03-23T20:42:49.470Z,8.49
2023-03-23T20:47:51.328Z,8.44
2023-03-23T20:52:53.295Z,8.43
2023-03-23T20:57:55.549Z,8.44
2023-03-23T21:02:57.521Z,8.42
2023-03-23T21:07:59.448Z,8.37
2023-03-23T21:13:01.317Z,8.39
2023-03-23T21:18:03.432Z,8.39
2023-03-23T21:23:05.553Z,8.40
2023-03-23T21:28:07.514Z,8.37
2023-03-23T21:33:09.379Z,8.30
2023-03-23T21:38:11.501Z,8.29
2023-03-23T21:43:13.483Z,8.26
2023-03-23T21:48:15.316Z,8.23
2023-03-23T21:53:17.195Z,8.15
2023-03-23T21:58:20.012Z,8.12
2023-03-23T22:03:22.823Z,8.12
2023-03-23T22:08:25.867Z,8.10
2023-03-23T22:13:28.996Z,8.13
2023-03-23T22:18:30.993Z,8.13
2023-03-23T22:23:33.483Z,8.13
2023-03-23T22:28:35.455Z,8.10
2023-03-23T22:33:37.496Z,8.08
2023-03-23T22:38:41.392Z,7.97
2023-03-23T22:43:43.459Z,8.01
2023-03-23T22:48:45.670Z,7.99
2023-03-23T22:53:47.723Z,7.99
2023-03-23T22:58:49.704Z,7.92
2023-03-23T23:03:51.700Z,7.94
2023-03-23T23:08:53.663Z,7.91
2023-03-23T23:13:55.699Z,7.93
2023-03-23T23:18:57.661Z,7.86
2023-03-23T23:23:59.567Z,7.85
2023-03-23T23:29:01.584Z,7.85
2023-03-23T23:34:03.846Z,7.79
2023-03-23T23:39:05.848Z,7.79
2023-03-23T23:44:07.878Z,7.81
2023-03-23T23:49:09.799Z,7.78
2023-03-23T23:54:11.720Z,7.72
2023-03-23T23:59:13.551Z,7.60
